Time;durP1;ratioP1;P1;durP2;ratioP2;P2;SDS_P1;SDS_P2;PMS_P1;PMS_P2;Temp;Humidity;BMP_temperature;BMP_pressure;BME280_temperature;BME280_humidity;BME280_pressure;Samples;Min_cycle;Max_cycle;Signal;HPM_P1;HPM_P2
2024/04/07 00:01:39;;;;;;;;;;;;;;;;;;5079897;28;19927;-64
2024/04/07 00:04:05;;;;;;;;;;;;;;;;;;5084053;28;19912;-65
2024/04/07 00:06:31;;;;;;;;;;;;;;;;;;5087800;28;19916;-65
2024/04/07 00:08:57;;;;;;;;;;;;;;;;;;5084152;28;20279;-65
2024/04/07 00:11:23;;;;;;;;;;;;;;;;;;5077804;28;19967;-64
2024/04/07 00:13:49;;;;;;;;;;;;;;;;;;5080896;28;19923;-65
2024/04/07 00:16:14;;;;;;;;;;;;;;;;;;5079175;28;20531;-65
2024/04/07 00:18:40;;;;;;;;;;;;;;;;;;5089424;28;19946;-64
2024/04/07 00:21:06;;;;;;;;;;;;;;;;;;5083437;28;19916;-65
2024/04/07 00:23:32;;;;;;;;;;;;;;;;;;5085945;28;20384;-65
2024/04/07 00:25:58;;;;;;;;;;;;;;;;;;5087647;28;19930;-65
2024/04/07 00:28:24;;;;;;;;;;;;;;;;;;5076122;28;19978;-64
2024/04/07 00:30:50;;;;;;;;;;;;;;;;;;5081464;28;20007;-64
2024/04/07 00:33:15;;;;;;;;;;;;;;;;;;5084961;28;19912;-64
2024/04/07 00:35:42;;;;;;;;;;;;;;;;;;5075286;28;20334;-64
2024/04/07 00:38:07;;;;;;;;;;;;;;;;;;5084390;28;19942;-65
2024/04/07 00:40:33;;;;;;;;;;;;;;;;;;5086230;28;19912;-62
2024/04/07 00:42:59;;;;;;;;;;;;;;;;;;5084987;28;19965;-64
2024/04/07 00:45:25;;;;;;;;;;;;;;;;;;5083371;28;20293;-64
2024/04/07 00:47:51;;;;;;;;;;;;;;;;;;5085277;28;20306;-64
2024/04/07 00:50:17;;;;;;;;;;;;;;;;;;5081186;28;19916;-64
2024/04/07 00:52:43;;;;;;;;;;;;;;;;;;5079098;28;19959;-64
2024/04/07 00:55:09;;;;;;;;;;;;;;;;;;5085816;28;19920;-65
2024/04/07 00:57:35;;;;;;;;;;;;;;;;;;5088930;28;20386;-64
2024/04/07 01:00:00;;;;;;;;;;;;;;;;;;5084544;28;20019;-64
2024/04/07 01:02:26;;;;;;;;;;;;;;;;;;5083443;28;20390;-64
2024/04/07 01:04:52;;;;;;;;;;;;;;;;;;5089620;28;19947;-63
2024/04/07 01:07:18;;;;;;;;;;;;;;;;;;5090772;28;20057;-63
2024/04/07 01:09:44;;;;;;;;;;;;;;;;;;5085875;28;19912;-65
2024/04/07 01:12:10;;;;;;;;;;;;;;;;;;5084560;28;19916;-64
2024/04/07 01:14:36;;;;;;;;;;;;;;;;;;5083744;28;20062;-63
2024/04/07 01:17:02;;;;;;;;;;;;;;;;;;5085690;28;20387;-63
2024/04/07 01:19:27;;;;;;;;;;;;;;;;;;5088226;28;19923;-64
2024/04/07 01:21:53;;;;;;;;;;;;;;;;;;5086043;28;19912;-65
2024/04/07 01:24:19;;;;;;;;;;;;;;;;;;5091220;28;19912;-64
2024/04/07 01:26:45;;;;;;;;;;;;;;;;;;5084798;28;20284;-64
2024/04/07 01:29:11;;;;;;;;;;;;;;;;;;5080204;28;19984;-65
2024/04/07 01:31:37;;;;;;;;;;;;;;;;;;5078127;28;19917;-64
2024/04/07 01:34:03;;;;;;;;;;;;;;;;;;5080789;28;20287;-64
2024/04/07 01:36:29;;;;;;;;;;;;;;;;;;5077419;28;19985;-64
2024/04/07 01:38:55;;;;;;;;;;;;;;;;;;5086809;28;20382;-64
2024/04/07 01:41:21;;;;;;;;;;;;;;;;;;5085203;28;19912;-65
2024/04/07 01:43:47;;;;;;;;;;;;;;;;;;5080246;28;19913;-63
2024/04/07 01:46:13;;;;;;;;;;;;;;;;;;5074714;28;19912;-62
2024/04/07 01:48:40;;;;;;;;;;;;;;;;;;5078826;28;19912;-65
2024/04/07 01:51:07;;;;;;;;;;;;;;;;;;5081708;28;19912;-63
2024/04/07 01:53:33;;;;;;;;;;;;;;;;;;5081791;28;19921;-65
2024/04/07 01:55:59;;;;;;;;;;;;;;;;;;5084099;28;19930;-64
2024/04/07 01:58:24;;;;;;;;;;;;;;;;;;5083582;28;19928;-65
2024/04/07 02:00:50;;;;;;;;;;;;;;;;;;5082011;28;19916;-64
2024/04/07 02:03:17;;;;;;;;;;;;;;;;;;5088140;28;19919;-64
2024/04/07 02:05:44;;;;;;;;;;;;;;;;;;5081413;28;19913;-63
2024/04/07 02:08:09;;;;;;;;;;;;;;;;;;5083246;28;19965;-65
2024/04/07 02:10:35;;;;;;;;;;;;;;;;;;5087767;28;20002;-66
2024/04/07 02:13:02;;;;;;;;;;;;;;;;;;5080007;28;20385;-65
2024/04/07 02:15:29;;;;;;;;;;;;;;;;;;5080164;28;19913;-65
2024/04/07 02:17:55;;;;;;;;;;;;;;;;;;5087557;28;20274;-65
2024/04/07 02:20:22;;;;;;;;;;;;;;;;;;5086365;28;20210;-65
2024/04/07 02:22:48;;;;;;;;;;;;;;;;;;5080442;28;20015;-65
2024/04/07 02:25:14;;;;;;;;;;;;;;;;;;5086464;28;19928;-64
2024/04/07 02:27:40;;;;;;;;;;;;;;;;;;5085245;28;20350;-63
2024/04/07 02:30:08;;;;;;;;;;;;;;;;;;5087981;28;19912;-64
2024/04/07 02:32:34;;;;;;;;;;;;;;;;;;5084364;28;20022;-63
2024/04/07 02:34:59;;;;;;;;;;;;;;;;;;5087752;28;19978;-64
2024/04/07 02:37:26;;;;;;;;;;;;;;;;;;5081705;28;19916;-64
2024/04/07 02:39:52;;;;;;;;;;;;;;;;;;5088392;28;19919;-63
2024/04/07 02:42:18;;;;;;;;;;;;;;;;;;5080967;28;19938;-64
2024/04/07 02:50:13;;;;;;;;;;;;;;;;;;5090304;28;20003;-65
2024/04/07 02:52:39;;;;;;;;;;;;;;;;;;5079182;28;20003;-62
2024/04/07 02:55:05;;;;;;;;;;;;;;;;;;5081445;28;19912;-62
2024/04/07 02:57:31;;;;;;;;;;;;;;;;;;5076715;28;19927;-65
2024/04/07 02:59:56;;;;;;;;;;;;;;;;;;5089890;28;19912;-65
2024/04/07 03:02:23;;;;;;;;;;;;;;;;;;5086121;28;19924;-65
2024/04/07 03:04:49;;;;;;;;;;;;;;;;;;5086018;28;21228;-65
2024/04/07 03:07:14;;;;;;;;;;;;;;;;;;5088343;28;20369;-65
2024/04/07 03:09:40;;;;;;;;;;;;;;;;;;5092601;28;19923;-63
2024/04/07 03:12:06;;;;;;;;;;;;;;;;;;5084480;28;20017;-64
2024/04/07 03:14:32;;;;;;;;;;;;;;;;;;5085174;28;19999;-64
2024/04/07 03:16:58;;;;;;;;;;;;;;;;;;5088675;28;20401;-65
2024/04/07 03:19:24;;;;;;;;;;;;;;;;;;5090461;28;19916;-65
2024/04/07 03:21:50;;;;;;;;;;;;;;;;;;5090452;28;20428;-65
2024/04/07 03:24:16;;;;;;;;;;;;;;;;;;5086101;28;19973;-65
2024/04/07 03:26:42;;;;;;;;;;;;;;;;;;5084704;28;19923;-65
2024/04/07 03:29:07;;;;;;;;;;;;;;;;;;5081105;28;20358;-64
2024/04/07 03:31:33;;;;;;;;;;;;;;;;;;5087391;28;19912;-65
2024/04/07 03:33:59;;;;;;;;;;;;;;;;;;5084483;28;20378;-65
2024/04/07 03:36:27;;;;;;;;;;;;;;;;;;5081895;28;19958;-63
2024/04/07 03:38:53;;;;;;;;;;;;;;;;;;5094401;28;20297;-64
2024/04/07 03:41:19;;;;;;;;;;;;;;;;;;5087819;28;19918;-65
2024/04/07 03:43:45;;;;;;;;;;;;;;;;;;5083180;28;19912;-65
2024/04/07 03:46:11;;;;;;;;;;;;;;;;;;5085994;28;20015;-65
2024/04/07 03:48:37;;;;;;;;;;;;;;;;;;5095695;28;19973;-65
2024/04/07 03:51:03;;;;;;;;;;;;;;;;;;5099551;28;19937;-65
2024/04/07 03:53:28;;;;;;;;;;;;;;;;;;5093754;28;19918;-64
2024/04/07 03:55:54;;;;;;;;;;;;;;;;;;5095188;28;19916;-64
2024/04/07 03:58:20;;;;;;;;;;;;;;;;;;5086530;28;19927;-64
2024/04/07 04:00:46;;;;;;;;;;;;;;;;;;5095992;28;19916;-63
2024/04/07 04:03:12;;;;;;;;;;;;;;;;;;5091044;28;19912;-64
2024/04/07 04:05:38;;;;;;;;;;;;;;;;;;5092466;28;19912;-64
2024/04/07 04:08:04;;;;;;;;;;;;;;;;;;5093708;28;19916;-65
2024/04/07 04:10:30;;;;;;;;;;;;;;;;;;5087953;28;19927;-65
2024/04/07 04:12:56;;;;;;;;;;;;;;;;;;5090882;28;20050;-65
2024/04/07 04:15:22;;;;;;;;;;;;;;;;;;5094688;28;20298;-65
2024/04/07 04:17:48;;;;;;;;;;;;;;;;;;5087242;28;20006;-64
2024/04/07 04:20:13;;;;;;;;;;;;;;;;;;5088247;28;19912;-65
2024/04/07 04:22:39;;;;;;;;;;;;;;;;;;5084720;28;19916;-64
2024/04/07 04:25:06;;;;;;;;;;;;;;;;;;5090355;28;20459;-66
2024/04/07 04:27:32;;;;;;;;;;;;;;;;;;5090065;28;19916;-65
2024/04/07 04:29:58;;;;;;;;;;;;;;;;;;5089764;28;19912;-64
2024/04/07 04:32:24;;;;;;;;;;;;;;;;;;5087093;28;19955;-65
2024/04/07 04:34:50;;;;;;;;;;;;;;;;;;5103396;28;20335;-65
2024/04/07 04:37:15;;;;;;;;;;;;;;;;;;5078624;28;20010;-65
2024/04/07 04:39:41;;;;;;;;;;;;;;;;;;5098769;28;19913;-64
2024/04/07 04:42:07;;;;;;;;;;;;;;;;;;5089442;28;19991;-64
2024/04/07 04:44:33;;;;;;;;;;;;;;;;;;5086175;28;20320;-65
2024/04/07 04:46:59;;;;;;;;;;;;;;;;;;5086801;28;19957;-62
2024/04/07 04:49:25;;;;;;;;;;;;;;;;;;5090026;28;20301;-65
2024/04/07 04:51:51;;;;;;;;;;;;;;;;;;5095774;28;20093;-65
2024/04/07 04:54:17;;;;;;;;;;;;;;;;;;5089225;28;20343;-65
2024/04/07 04:56:43;;;;;;;;;;;;;;;;;;5099542;28;19912;-65
2024/04/07 04:59:09;;;;;;;;;;;;;;;;;;5088774;28;20002;-65
2024/04/07 05:01:34;;;;;;;;;;;;;;;;;;5090719;28;19912;-65
2024/04/07 05:04:00;;;;;;;;;;;;;;;;;;5092821;28;20413;-65
2024/04/07 05:06:26;;;;;;;;;;;;;;;;;;5095396;28;19912;-65
2024/04/07 05:08:52;;;;;;;;;;;;;;;;;;5087898;28;19920;-65
2024/04/07 05:11:18;;;;;;;;;;;;;;;;;;5088423;28;19912;-64
2024/04/07 05:13:44;;;;;;;;;;;;;;;;;;5088235;28;20397;-65
2024/04/07 05:16:10;;;;;;;;;;;;;;;;;;5084406;28;20228;-65
2024/04/07 05:18:36;;;;;;;;;;;;;;;;;;5096078;28;19916;-65
2024/04/07 05:21:02;;;;;;;;;;;;;;;;;;5091504;28;20381;-64
2024/04/07 05:23:28;;;;;;;;;;;;;;;;;;5078890;28;19916;-64
2024/04/07 05:25:53;;;;;;;;;;;;;;;;;;5094829;28;19912;-64
2024/04/07 05:28:21;;;;;;;;;;;;;;;;;;5092161;28;19912;-64
2024/04/07 05:30:46;;;;;;;;;;;;;;;;;;5083163;28;20035;-65
2024/04/07 05:33:12;;;;;;;;;;;;;;;;;;5091823;28;20014;-65
2024/04/07 05:35:38;;;;;;;;;;;;;;;;;;5089451;28;20377;-65
2024/04/07 05:38:05;;;;;;;;;;;;;;;;;;5087980;28;19981;-65
2024/04/07 05:40:31;;;;;;;;;;;;;;;;;;5078184;28;19923;-65
2024/04/07 05:42:57;;;;;;;;;;;;;;;;;;5086207;28;20007;-65
2024/04/07 05:45:23;;;;;;;;;;;;;;;;;;5089266;28;20016;-65
2024/04/07 05:47:49;;;;;;;;;;;;;;;;;;5095382;28;19955;-64
2024/04/07 05:50:15;;;;;;;;;;;;;;;;;;5086558;28;19920;-65
2024/04/07 05:52:41;;;;;;;;;;;;;;;;;;5085211;28;19917;-64
2024/04/07 05:55:08;;;;;;;;;;;;;;;;;;5088533;28;19915;-65
2024/04/07 05:57:34;;;;;;;;;;;;;;;;;;5091307;28;19912;-65
2024/04/07 06:00:00;;;;;;;;;;;;;;;;;;5093458;28;21056;-65
2024/04/07 06:02:26;;;;;;;;;;;;;;;;;;5087671;28;19927;-64
2024/04/07 06:04:52;;;;;;;;;;;;;;;;;;5095648;28;19919;-65
2024/04/07 06:07:18;;;;;;;;;;;;;;;;;;5093392;28;19962;-65
2024/04/07 06:09:44;;;;;;;;;;;;;;;;;;5085834;28;19912;-65
2024/04/07 06:12:10;;;;;;;;;;;;;;;;;;5085513;28;19912;-63
2024/04/07 06:14:36;;;;;;;;;;;;;;;;;;5089176;28;20294;-64
2024/04/07 06:17:01;;;;;;;;;;;;;;;;;;5094272;28;19908;-65
2024/04/07 06:19:27;;;;;;;;;;;;;;;;;;5094265;28;19919;-65
2024/04/07 06:21:53;;;;;;;;;;;;;;;;;;5089973;28;19912;-65
2024/04/07 06:24:19;;;;;;;;;;;;;;;;;;5085877;28;19919;-65
2024/04/07 06:26:45;;;;;;;;;;;;;;;;;;5090135;28;20271;-64
2024/04/07 06:29:11;;;;;;;;;;;;;;;;;;5089108;28;19920;-64
2024/04/07 06:31:37;;;;;;;;;;;;;;;;;;5086309;28;19912;-63
2024/04/07 06:34:03;;;;;;;;;;;;;;;;;;5088109;28;19923;-64
2024/04/07 06:36:29;;;;;;;;;;;;;;;;;;5089098;28;19923;-64
2024/04/07 06:38:55;;;;;;;;;;;;;;;;;;5089050;28;19916;-63
2024/04/07 06:41:21;;;;;;;;;;;;;;;;;;5084377;28;19916;-64
2024/04/07 06:43:47;;;;;;;;;;;;;;;;;;5087167;28;19916;-65
2024/04/07 06:46:13;;;;;;;;;;;;;;;;;;5079678;28;20166;-64
2024/04/07 06:48:38;;;;;;;;;;;;;;;;;;5088171;28;19990;-65
2024/04/07 06:51:04;;;;;;;;;;;;;;;;;;5090090;28;20271;-65
2024/04/07 06:53:30;;;;;;;;;;;;;;;;;;5088914;28;20001;-65
2024/04/07 06:55:56;;;;;;;;;;;;;;;;;;5093522;28;19918;-65
2024/04/07 06:58:22;;;;;;;;;;;;;;;;;;5092257;28;19916;-65
2024/04/07 07:00:48;;;;;;;;;;;;;;;;;;5085074;28;19912;-64
2024/04/07 07:03:14;;;;;;;;;;;;;;;;;;5087587;28;19912;-64
2024/04/07 07:05:40;;;;;;;;;;;;;;;;;;5077278;28;21603;-64
2024/04/07 07:08:06;;;;;;;;;;;;;;;;;;5081583;28;19912;-65
2024/04/07 07:10:32;;;;;;;;;;;;;;;;;;5078020;28;19912;-65
2024/04/07 07:12:57;;;;;;;;;;;;;;;;;;5076095;28;19935;-63
2024/04/07 07:15:23;;;;;;;;;;;;;;;;;;5084388;28;19916;-64
2024/04/07 07:17:49;;;;;;;;;;;;;;;;;;5091550;28;19916;-62
2024/04/07 07:20:15;;;;;;;;;;;;;;;;;;5089352;28;20007;-62
2024/04/07 07:22:41;;;;;;;;;;;;;;;;;;5088613;28;20469;-63
2024/04/07 07:25:07;;;;;;;;;;;;;;;;;;5082846;28;19913;-64
2024/04/07 07:27:33;;;;;;;;;;;;;;;;;;5079607;28;19970;-60
2024/04/07 07:29:59;;;;;;;;;;;;;;;;;;5073626;28;20405;-63
2024/04/07 07:32:24;;;;;;;;;;;;;;;;;;5080401;28;19917;-63
2024/04/07 07:34:50;;;;;;;;;;;;;;;;;;5090185;28;19912;-62
2024/04/07 07:37:16;;;;;;;;;;;;;;;;;;5102102;28;19916;-62
2024/04/07 07:39:42;;;;;;;;;;;;;;;;;;5091996;28;19916;-63
2024/04/07 07:42:08;;;;;;;;;;;;;;;;;;5085988;28;19916;-63
2024/04/07 07:44:34;;;;;;;;;;;;;;;;;;5086159;28;19912;-63
2024/04/07 07:47:00;;;;;;;;;;;;;;;;;;5091016;28;19955;-63
2024/04/07 07:49:26;;;;;;;;;;;;;;;;;;5088084;28;20393;-63
2024/04/07 07:51:51;;;;;;;;;;;;;;;;;;5088730;28;19995;-61
2024/04/07 07:54:17;;;;;;;;;;;;;;;;;;5090366;28;19917;-63
2024/04/07 07:56:43;;;;;;;;;;;;;;;;;;5088255;28;19998;-63
2024/04/07 07:59:09;;;;;;;;;;;;;;;;;;5081075;28;20011;-63
2024/04/07 08:01:35;;;;;;;;;;;;;;;;;;5083139;28;19932;-64
2024/04/07 08:04:01;;;;;;;;;;;;;;;;;;5084827;28;20301;-64
2024/04/07 08:06:28;;;;;;;;;;;;;;;;;;5079834;28;19912;-64
2024/04/07 08:08:54;;;;;;;;;;;;;;;;;;5077474;28;19973;-63
2024/04/07 08:11:20;;;;;;;;;;;;;;;;;;5076820;28;19920;-63
2024/04/07 08:13:45;;;;;;;;;;;;;;;;;;5082873;28;19912;-62
2024/04/07 08:16:11;;;;;;;;;;;;;;;;;;5075596;28;19985;-63
2024/04/07 08:18:37;;;;;;;;;;;;;;;;;;5090928;28;20055;-63
2024/04/07 08:21:03;;;;;;;;;;;;;;;;;;5089417;28;19999;-63
2024/04/07 08:23:29;;;;;;;;;;;;;;;;;;5081690;28;19981;-63
2024/04/07 08:25:56;;;;;;;;;;;;;;;;;;5084969;28;19916;-59
2024/04/07 08:28:22;;;;;;;;;;;;;;;;;;5085032;28;20439;-61
2024/04/07 08:30:48;;;;;;;;;;;;;;;;;;5085544;28;19916;-63
2024/04/07 08:33:14;;;;;;;;;;;;;;;;;;5086108;28;20298;-62
2024/04/07 08:35:39;;;;;;;;;;;;;;;;;;5090725;28;19916;-63
2024/04/07 08:38:05;;;;;;;;;;;;;;;;;;5078439;28;19924;-63
2024/04/07 08:40:31;;;;;;;;;;;;;;;;;;5084120;28;19927;-63
2024/04/07 08:42:57;;;;;;;;;;;;;;;;;;5083723;28;19923;-62
2024/04/07 08:45:23;;;;;;;;;;;;;;;;;;5077556;28;19999;-63
2024/04/07 08:47:49;;;;;;;;;;;;;;;;;;5082351;28;19912;-63
2024/04/07 08:50:15;;;;;;;;;;;;;;;;;;5081760;28;20410;-63
2024/04/07 08:52:41;;;;;;;;;;;;;;;;;;5077883;28;19923;-63
2024/04/07 08:55:06;;;;;;;;;;;;;;;;;;5077795;28;20299;-62
2024/04/07 08:57:32;;;;;;;;;;;;;;;;;;5092364;28;19965;-63
2024/04/07 08:59:58;;;;;;;;;;;;;;;;;;5079648;28;20019;-62
2024/04/07 09:02:24;;;;;;;;;;;;;;;;;;5082864;28;19916;-62
2024/04/07 09:04:50;;;;;;;;;;;;;;;;;;5088934;28;19995;-62
2024/04/07 09:07:16;;;;;;;;;;;;;;;;;;5072643;28;20406;-62
2024/04/07 09:09:41;;;;;;;;;;;;;;;;;;5076214;28;20389;-62
2024/04/07 09:12:08;;;;;;;;;;;;;;;;;;5075382;28;19912;-62
2024/04/07 09:14:34;;;;;;;;;;;;;;;;;;5079573;28;19917;-59
2024/04/07 09:17:00;;;;;;;;;;;;;;;;;;5080645;28;19923;-63
2024/04/07 09:19:26;;;;;;;;;;;;;;;;;;5088726;28;19916;-64
2024/04/07 09:21:52;;;;;;;;;;;;;;;;;;5077755;28;19919;-62
2024/04/07 09:24:18;;;;;;;;;;;;;;;;;;5073845;28;19927;-63
2024/04/07 09:26:43;;;;;;;;;;;;;;;;;;5088857;28;19991;-63
2024/04/07 09:29:09;;;;;;;;;;;;;;;;;;5091268;28;20331;-63
2024/04/07 09:31:35;;;;;;;;;;;;;;;;;;5081706;28;19942;-63
2024/04/07 09:34:01;;;;;;;;;;;;;;;;;;5087956;28;19928;-62
2024/04/07 09:36:27;;;;;;;;;;;;;;;;;;5086692;28;20101;-61
2024/04/07 09:38:53;;;;;;;;;;;;;;;;;;5086325;28;19916;-63
2024/04/07 09:41:19;;;;;;;;;;;;;;;;;;5076651;28;19916;-63
2024/04/07 09:43:45;;;;;;;;;;;;;;;;;;5092603;28;20294;-63
2024/04/07 09:46:11;;;;;;;;;;;;;;;;;;5087630;28;20053;-61
2024/04/07 09:48:37;;;;;;;;;;;;;;;;;;5091547;28;19920;-62
2024/04/07 09:51:03;;;;;;;;;;;;;;;;;;5091374;28;20465;-62
2024/04/07 09:53:34;;;;;;;;;;;;;;;;;;5080466;28;19916;-63
2024/04/07 09:56:00;;;;;;;;;;;;;;;;;;5082330;28;20625;-62
2024/04/07 09:58:26;;;;;;;;;;;;;;;;;;5083577;28;19995;-63
2024/04/07 10:00:52;;;;;;;;;;;;;;;;;;5088540;28;20331;-62
2024/04/07 10:03:18;;;;;;;;;;;;;;;;;;5081734;28;19919;-63
2024/04/07 10:05:43;;;;;;;;;;;;;;;;;;5087203;28;20261;-62
2024/04/07 10:08:09;;;;;;;;;;;;;;;;;;5087457;28;19919;-62
2024/04/07 10:10:37;;;;;;;;;;;;;;;;;;5090658;28;20013;-62
2024/04/07 10:13:03;;;;;;;;;;;;;;;;;;5079169;28;19931;-62
2024/04/07 10:15:29;;;;;;;;;;;;;;;;;;5075737;28;19912;-62
2024/04/07 10:17:54;;;;;;;;;;;;;;;;;;5076341;28;19999;-62
2024/04/07 10:20:20;;;;;;;;;;;;;;;;;;5077647;28;19912;-62
2024/04/07 10:22:46;;;;;;;;;;;;;;;;;;5087365;28;20331;-63
2024/04/07 10:25:12;;;;;;;;;;;;;;;;;;5077466;28;19912;-63
2024/04/07 10:27:38;;;;;;;;;;;;;;;;;;5085061;28;19969;-63
2024/04/07 10:30:04;;;;;;;;;;;;;;;;;;5079182;28;20378;-62
2024/04/07 10:32:31;;;;;;;;;;;;;;;;;;5074526;28;19928;-62
2024/04/07 10:34:57;;;;;;;;;;;;;;;;;;5075636;28;20582;-62
2024/04/07 10:37:23;;;;;;;;;;;;;;;;;;5076597;28;19923;-63
2024/04/07 10:39:49;;;;;;;;;;;;;;;;;;5076778;28;20049;-63
2024/04/07 10:42:15;;;;;;;;;;;;;;;;;;5073808;28;19920;-62
2024/04/07 10:44:40;;;;;;;;;;;;;;;;;;5074506;28;20322;-62
2024/04/07 10:47:06;;;;;;;;;;;;;;;;;;5083350;28;19948;-63
2024/04/07 10:49:32;;;;;;;;;;;;;;;;;;5080292;28;20465;-62
2024/04/07 10:51:58;;;;;;;;;;;;;;;;;;5093049;28;19920;-62
2024/04/07 10:54:27;;;;;;;;;;;;;;;;;;5081262;28;19919;-61
2024/04/07 10:56:52;;;;;;;;;;;;;;;;;;5092694;28;19912;-61
2024/04/07 10:59:18;;;;;;;;;;;;;;;;;;5083465;28;19922;-61
2024/04/07 11:01:44;;;;;;;;;;;;;;;;;;5084656;28;19978;-61
2024/04/07 11:04:10;;;;;;;;;;;;;;;;;;5092793;28;19916;-62
2024/04/07 11:06:36;;;;;;;;;;;;;;;;;;5086885;28;19912;-62
2024/04/07 11:09:03;;;;;;;;;;;;;;;;;;5090672;28;20392;-62
2024/04/07 11:11:29;;;;;;;;;;;;;;;;;;5082549;28;19912;-62
2024/04/07 11:13:55;;;;;;;;;;;;;;;;;;5082366;28;20005;-61
2024/04/07 11:16:22;;;;;;;;;;;;;;;;;;5086725;28;19916;-60
2024/04/07 11:18:48;;;;;;;;;;;;;;;;;;5091030;28;19919;-62
2024/04/07 11:21:14;;;;;;;;;;;;;;;;;;5086197;28;19916;-61
2024/04/07 11:23:40;;;;;;;;;;;;;;;;;;5087029;28;19953;-62
2024/04/07 11:26:05;;;;;;;;;;;;;;;;;;5087471;28;19934;-59
2024/04/07 11:28:31;;;;;;;;;;;;;;;;;;5088982;28;19942;-61
2024/04/07 11:30:57;;;;;;;;;;;;;;;;;;5089087;28;20374;-62
2024/04/07 11:33:23;;;;;;;;;;;;;;;;;;5086374;28;19916;-62
2024/04/07 11:35:49;;;;;;;;;;;;;;;;;;5079729;28;19999;-61
2024/04/07 11:38:15;;;;;;;;;;;;;;;;;;5087166;28;19916;-63
2024/04/07 11:40:41;;;;;;;;;;;;;;;;;;5082774;28;20335;-63
2024/04/07 11:43:07;;;;;;;;;;;;;;;;;;5086900;28;19913;-62
2024/04/07 11:45:32;;;;;;;;;;;;;;;;;;5084906;28;20542;-63
2024/04/07 11:48:02;;;;;;;;;;;;;;;;;;5079902;28;19916;-63
2024/04/07 11:50:28;;;;;;;;;;;;;;;;;;5084754;28;19916;-62
2024/04/07 11:52:56;;;;;;;;;;;;;;;;;;5095181;28;19976;-62
2024/04/07 11:55:21;;;;;;;;;;;;;;;;;;5085942;28;19923;-62
2024/04/07 11:57:47;;;;;;;;;;;;;;;;;;5079493;28;19916;-61
2024/04/07 12:00:13;;;;;;;;;;;;;;;;;;5080773;28;19965;-60
2024/04/07 12:02:39;;;;;;;;;;;;;;;;;;5087213;28;19920;-60
2024/04/07 12:05:05;;;;;;;;;;;;;;;;;;5086107;28;20702;-60
2024/04/07 12:07:31;;;;;;;;;;;;;;;;;;5091896;28;20007;-63
2024/04/07 12:09:57;;;;;;;;;;;;;;;;;;5094945;28;19915;-63
2024/04/07 12:12:23;;;;;;;;;;;;;;;;;;5086319;28;19908;-63
2024/04/07 12:14:48;;;;;;;;;;;;;;;;;;5079453;28;19912;-63
2024/04/07 12:17:14;;;;;;;;;;;;;;;;;;5085231;28;19916;-63
2024/04/07 12:19:40;;;;;;;;;;;;;;;;;;5089486;28;20389;-63
2024/04/07 12:22:07;;;;;;;;;;;;;;;;;;5082257;28;19921;-63
2024/04/07 12:24:32;;;;;;;;;;;;;;;;;;5081523;28;19938;-63
2024/04/07 12:26:58;;;;;;;;;;;;;;;;;;5087830;28;20360;-61
2024/04/07 12:29:24;;;;;;;;;;;;;;;;;;5079368;28;19913;-60
2024/04/07 12:31:51;;;;;;;;;;;;;;;;;;5086300;28;19912;-62
2024/04/07 12:34:17;;;;;;;;;;;;;;;;;;5084713;28;19913;-63
2024/04/07 12:36:43;;;;;;;;;;;;;;;;;;5082908;28;20440;-62
2024/04/07 12:39:11;;;;;;;;;;;;;;;;;;5083406;28;20054;-63
2024/04/07 12:41:36;;;;;;;;;;;;;;;;;;5085007;28;19919;-63
2024/04/07 12:44:02;;;;;;;;;;;;;;;;;;5088476;28;19924;-63
2024/04/07 12:46:28;;;;;;;;;;;;;;;;;;5085817;28;19927;-61
2024/04/07 12:48:54;;;;;;;;;;;;;;;;;;5093257;28;19918;-62
2024/04/07 12:51:20;;;;;;;;;;;;;;;;;;5094187;28;19908;-63
2024/04/07 12:53:46;;;;;;;;;;;;;;;;;;5083555;28;19942;-63
2024/04/07 12:56:12;;;;;;;;;;;;;;;;;;5086327;28;19908;-63
2024/04/07 12:58:38;;;;;;;;;;;;;;;;;;5079871;28;20042;-62
2024/04/07 13:01:04;;;;;;;;;;;;;;;;;;5082877;28;20057;-60
2024/04/07 13:03:30;;;;;;;;;;;;;;;;;;5079649;28;19960;-62
2024/04/07 13:05:56;;;;;;;;;;;;;;;;;;5086799;28;20415;-61
2024/04/07 13:08:22;;;;;;;;;;;;;;;;;;5080890;28;19991;-62
2024/04/07 13:10:48;;;;;;;;;;;;;;;;;;5095247;28;19950;-62
2024/04/07 13:13:14;;;;;;;;;;;;;;;;;;5088525;28;19919;-62
2024/04/07 13:15:40;;;;;;;;;;;;;;;;;;5090102;28;20487;-62
2024/04/07 13:18:05;;;;;;;;;;;;;;;;;;5088860;28;19923;-63
2024/04/07 13:20:31;;;;;;;;;;;;;;;;;;5086689;28;19916;-62
2024/04/07 13:22:57;;;;;;;;;;;;;;;;;;5089237;28;20392;-63
2024/04/07 13:25:23;;;;;;;;;;;;;;;;;;5083533;28;20397;-62
2024/04/07 13:27:51;;;;;;;;;;;;;;;;;;5085773;28;19913;-63
2024/04/07 13:30:17;;;;;;;;;;;;;;;;;;5077617;28;19935;-61
2024/04/07 13:32:43;;;;;;;;;;;;;;;;;;5083471;28;19950;-62
2024/04/07 13:35:10;;;;;;;;;;;;;;;;;;5082825;28;20423;-62
2024/04/07 13:37:36;;;;;;;;;;;;;;;;;;5081899;28;19951;-63
2024/04/07 13:40:02;;;;;;;;;;;;;;;;;;5086336;28;19943;-62
2024/04/07 13:42:30;;;;;;;;;;;;;;;;;;5084876;28;21372;-62
2024/04/07 13:44:56;;;;;;;;;;;;;;;;;;5082443;28;19999;-60
2024/04/07 13:47:21;;;;;;;;;;;;;;;;;;5084901;28;19923;-62
2024/04/07 13:49:47;;;;;;;;;;;;;;;;;;5078233;28;19999;-55
2024/04/07 13:52:13;;;;;;;;;;;;;;;;;;5080975;28;20332;-57
2024/04/07 13:54:39;;;;;;;;;;;;;;;;;;5079992;28;19943;-57
2024/04/07 13:57:08;;;;;;;;;;;;;;;;;;5078805;28;20349;-62
2024/04/07 13:59:34;;;;;;;;;;;;;;;;;;5080637;28;19997;-59
2024/04/07 14:02:00;;;;;;;;;;;;;;;;;;5080107;28;19976;-60
2024/04/07 14:04:26;;;;;;;;;;;;;;;;;;5075736;28;20058;-60
2024/04/07 14:06:52;;;;;;;;;;;;;;;;;;5086508;28;19940;-59
2024/04/07 14:09:18;;;;;;;;;;;;;;;;;;5086388;28;19963;-61
2024/04/07 14:11:46;;;;;;;;;;;;;;;;;;5079286;28;19958;-62
2024/04/07 14:14:12;;;;;;;;;;;;;;;;;;5083999;28;19916;-61
2024/04/07 14:16:42;;;;;;;;;;;;;;;;;;5083365;28;20441;-62
2024/04/07 14:19:08;;;;;;;;;;;;;;;;;;5080617;28;19971;-60
2024/04/07 14:21:34;;;;;;;;;;;;;;;;;;5075764;28;19921;-61
2024/04/07 14:23:59;;;;;;;;;;;;;;;;;;5076902;28;19912;-61
2024/04/07 14:26:25;;;;;;;;;;;;;;;;;;5081046;28;20354;-61
2024/04/07 14:28:51;;;;;;;;;;;;;;;;;;5078088;28;19916;-59
2024/04/07 14:31:17;;;;;;;;;;;;;;;;;;5085443;28;19920;-60
2024/04/07 14:33:43;;;;;;;;;;;;;;;;;;5076886;28;20840;-61
2024/04/07 14:36:09;;;;;;;;;;;;;;;;;;5092846;28;20385;-62
2024/04/07 14:38:35;;;;;;;;;;;;;;;;;;5084004;28;19916;-61
2024/04/07 14:41:01;;;;;;;;;;;;;;;;;;5087550;28;20402;-61
2024/04/07 14:43:27;;;;;;;;;;;;;;;;;;5082439;28;19913;-61
2024/04/07 14:45:52;;;;;;;;;;;;;;;;;;5084463;28;20420;-61
2024/04/07 14:48:18;;;;;;;;;;;;;;;;;;5076645;28;19986;-61
2024/04/07 14:50:44;;;;;;;;;;;;;;;;;;5081646;28;19919;-56
2024/04/07 14:53:10;;;;;;;;;;;;;;;;;;5086592;28;19912;-60
2024/04/07 14:55:36;;;;;;;;;;;;;;;;;;5093766;28;19916;-61
2024/04/07 14:58:02;;;;;;;;;;;;;;;;;;5081682;28;19920;-61
2024/04/07 15:00:28;;;;;;;;;;;;;;;;;;5094938;27;19920;-61
2024/04/07 15:02:54;;;;;;;;;;;;;;;;;;5086688;28;20333;-61
2024/04/07 15:05:20;;;;;;;;;;;;;;;;;;5080690;28;19923;-61
2024/04/07 15:07:45;;;;;;;;;;;;;;;;;;5088074;28;19935;-61
2024/04/07 15:10:11;;;;;;;;;;;;;;;;;;5089307;28;19919;-61
2024/04/07 15:12:37;;;;;;;;;;;;;;;;;;5083806;28;20352;-61
2024/04/07 15:15:03;;;;;;;;;;;;;;;;;;5080721;28;19920;-58
2024/04/07 15:17:29;;;;;;;;;;;;;;;;;;5091762;28;19919;-61
2024/04/07 15:19:55;;;;;;;;;;;;;;;;;;5082366;28;19964;-60
2024/04/07 15:22:21;;;;;;;;;;;;;;;;;;5081231;28;20026;-61
2024/04/07 15:24:47;;;;;;;;;;;;;;;;;;5088992;28;20322;-61
2024/04/07 15:27:13;;;;;;;;;;;;;;;;;;5091369;28;19912;-63
2024/04/07 15:29:39;;;;;;;;;;;;;;;;;;5077922;28;20424;-61
2024/04/07 15:32:05;;;;;;;;;;;;;;;;;;5082493;28;19999;-59
2024/04/07 15:34:31;;;;;;;;;;;;;;;;;;5086498;28;20433;-58
2024/04/07 15:36:57;;;;;;;;;;;;;;;;;;5088697;28;20090;-59
2024/04/07 15:39:23;;;;;;;;;;;;;;;;;;5081934;28;20451;-60
2024/04/07 15:41:48;;;;;;;;;;;;;;;;;;5089084;28;20006;-59
2024/04/07 15:44:14;;;;;;;;;;;;;;;;;;5082041;28;20401;-59
2024/04/07 15:46:40;;;;;;;;;;;;;;;;;;5082525;28;20005;-61
2024/04/07 15:49:06;;;;;;;;;;;;;;;;;;5087545;28;19912;-61
2024/04/07 15:51:32;;;;;;;;;;;;;;;;;;5085863;28;20018;-57
2024/04/07 15:53:58;;;;;;;;;;;;;;;;;;5086211;28;19963;-61
2024/04/07 15:56:25;;;;;;;;;;;;;;;;;;5083794;28;20407;-61
2024/04/07 15:58:51;;;;;;;;;;;;;;;;;;5088748;28;19919;-61
2024/04/07 16:01:21;;;;;;;;;;;;;;;;;;5095733;28;19912;-60
2024/04/07 16:03:47;;;;;;;;;;;;;;;;;;5092606;28;19954;-61
2024/04/07 16:06:13;;;;;;;;;;;;;;;;;;5088201;28;19943;-61
2024/04/07 16:08:39;;;;;;;;;;;;;;;;;;5093291;28;20002;-61
2024/04/07 16:11:05;;;;;;;;;;;;;;;;;;5076693;28;19924;-61
2024/04/07 16:13:30;;;;;;;;;;;;;;;;;;5088066;28;19998;-62
2024/04/07 16:15:56;;;;;;;;;;;;;;;;;;5088996;28;19919;-61
2024/04/07 16:18:22;;;;;;;;;;;;;;;;;;5092414;28;19924;-61
2024/04/07 16:20:48;;;;;;;;;;;;;;;;;;5085840;28;19958;-61
2024/04/07 16:23:14;;;;;;;;;;;;;;;;;;5094626;28;19915;-59
2024/04/07 16:25:43;;;;;;;;;;;;;;;;;;5101633;28;20347;-61
2024/04/07 16:28:09;;;;;;;;;;;;;;;;;;5101592;28;19915;-59
2024/04/07 16:30:35;;;;;;;;;;;;;;;;;;5087280;28;20420;-61
2024/04/07 16:33:01;;;;;;;;;;;;;;;;;;5100636;28;19920;-60
2024/04/07 16:35:27;;;;;;;;;;;;;;;;;;5091204;28;20259;-60
2024/04/07 16:37:53;;;;;;;;;;;;;;;;;;5085606;28;19920;-60
2024/04/07 16:40:19;;;;;;;;;;;;;;;;;;5088148;28;19982;-55
2024/04/07 16:42:45;;;;;;;;;;;;;;;;;;5086531;28;19908;-62